Time;durP1;ratioP1;P1;durP2;ratioP2;P2;SDS_P1;SDS_P2;PMS_P1;PMS_P2;Temp;Humidity;BMP_temperature;BMP_pressure;BME280_temperature;BME280_humidity;BME280_pressure;Samples;Min_cycle;Max_cycle;Signal;HPM_P1;HPM_P2
2023/08/07 00:17:08;;;;;;;5.30;1.20;;;;;;;;;;4941085;28;94913;-81
2023/08/07 00:19:34;;;;;;;5.43;1.25;;;;;;;;;;4945448;28;92974;-81
2023/08/07 00:22:01;;;;;;;6.90;1.33;;;;;;;;;;4953832;28;93339;-81
2023/08/07 00:24:27;;;;;;;7.68;1.40;;;;;;;;;;4940616;28;93786;-81
2023/08/07 00:26:54;;;;;;;6.93;1.55;;;;;;;;;;4950421;28;92887;-81
2023/08/07 00:29:21;;;;;;;3.17;1.20;;;;;;;;;;4950440;28;94516;-81
2023/08/07 00:31:47;;;;;;;6.72;1.48;;;;;;;;;;4950034;28;92506;-81
2023/08/07 00:34:14;;;;;;;7.53;1.40;;;;;;;;;;4937679;28;92894;-81
2023/08/07 00:36:40;;;;;;;6.20;1.40;;;;;;;;;;4930274;28;93758;-82
2023/08/07 00:39:08;;;;;;;7.10;1.60;;;;;;;;;;4926173;28;96449;-81
2023/08/07 00:41:38;;;;;;;7.15;1.42;;;;;;;;;;4935810;28;95384;-81
2023/08/07 00:44:06;;;;;;;6.93;1.40;;;;;;;;;;4942626;28;92972;-80
2023/08/07 00:46:33;;;;;;;7.80;1.70;;;;;;;;;;4965211;28;92513;-81
2023/08/07 00:49:00;;;;;;;4.30;1.35;;;;;;;;;;4946775;28;95728;-82
2023/08/07 00:51:26;;;;;;;6.57;1.65;;;;;;;;;;4934386;28;94285;-81
2023/08/07 00:53:53;;;;;;;5.47;1.45;;;;;;;;;;4949017;28;92504;-81
2023/08/07 00:56:20;;;;;;;5.63;1.35;;;;;;;;;;4948724;28;95670;-81
2023/08/07 00:58:46;;;;;;;7.75;1.70;;;;;;;;;;4943992;28;92434;-81
2023/08/07 01:01:14;;;;;;;7.22;1.55;;;;;;;;;;4940995;28;93015;-81
2023/08/07 01:03:40;;;;;;;5.65;1.58;;;;;;;;;;4941950;28;93518;-81
2023/08/07 01:06:07;;;;;;;4.97;1.30;;;;;;;;;;4950637;28;94871;-81
2023/08/07 01:08:34;;;;;;;;;;;;;;;;;;4943224;28;96864;-81
2023/08/07 01:11:10;;;;;;;6.22;1.45;;;;;;;;;;4937947;28;92434;-81
2023/08/07 01:13:40;;;;;;;6.80;1.73;;;;;;;;;;4947831;28;92948;-80
2023/08/07 01:16:10;;;;;;;7.07;1.60;;;;;;;;;;4950098;28;92870;-82
2023/08/07 01:18:38;;;;;;;7.70;1.65;;;;;;;;;;4943349;28;93003;-81
2023/08/07 01:21:05;;;;;;;6.15;1.45;;;;;;;;;;4935775;28;92764;-79
2023/08/07 01:23:32;;;;;;;6.32;1.50;;;;;;;;;;4949205;28;95185;-80
2023/08/07 01:25:58;;;;;;;6.78;1.60;;;;;;;;;;4949224;28;92461;-80
2023/08/07 01:28:37;;;;;;;7.47;1.80;;;;;;;;;;4935226;28;94939;-81
2023/08/07 01:31:07;;;;;;;7.28;1.58;;;;;;;;;;4948122;28;95423;-80
2023/08/07 01:33:45;;;;;;;7.13;1.67;;;;;;;;;;4940564;28;92546;-80
2023/08/07 01:36:12;;;;;;;6.65;1.42;;;;;;;;;;4930825;28;93297;-81
2023/08/07 01:38:41;;;;;;;7.97;1.70;;;;;;;;;;4948591;28;94272;-81
2023/08/07 01:41:08;;;;;;;7.25;1.65;;;;;;;;;;4939466;28;92490;-80
2023/08/07 01:43:35;;;;;;;5.25;1.30;;;;;;;;;;4944867;28;93481;-80
2023/08/07 01:46:02;;;;;;;6.95;1.58;;;;;;;;;;4940963;28;92904;-80
2023/08/07 01:48:29;;;;;;;;;;;;;;;;;;4945751;28;92540;-81
2023/08/07 01:50:56;;;;;;;7.68;1.55;;;;;;;;;;4938479;28;124983;-80
2023/08/07 01:53:22;;;;;;;9.30;1.60;;;;;;;;;;4948294;28;92848;-80
2023/08/07 01:55:49;;;;;;;7.47;1.80;;;;;;;;;;4940911;28;95228;-80
2023/08/07 01:58:15;;;;;;;8.48;2.00;;;;;;;;;;4932264;28;96162;-80
2023/08/07 02:00:42;;;;;;;7.50;1.60;;;;;;;;;;4941125;28;92556;-80
2023/08/07 02:03:09;;;;;;;7.15;1.60;;;;;;;;;;4939136;28;95601;-80
2023/08/07 02:05:35;;;;;;;7.45;1.70;;;;;;;;;;4940005;28;93109;-80
2023/08/07 02:08:02;;;;;;;7.78;1.40;;;;;;;;;;4939751;28;93204;-80
2023/08/07 02:10:28;;;;;;;7.90;1.60;;;;;;;;;;4928051;28;95570;-80
2023/08/07 02:12:57;;;;;;;7.55;1.80;;;;;;;;;;4950069;28;91673;-80
2023/08/07 02:15:23;;;;;;;7.63;1.60;;;;;;;;;;4931582;28;94957;-81
2023/08/07 02:17:50;;;;;;;6.03;1.75;;;;;;;;;;4950767;28;93010;-81
2023/08/07 02:20:16;;;;;;;8.07;1.88;;;;;;;;;;4946784;28;94894;-81
2023/08/07 02:22:43;;;;;;;6.80;1.67;;;;;;;;;;4944858;28;97574;-80
2023/08/07 02:25:10;;;;;;;6.70;1.58;;;;;;;;;;4940753;28;93178;-81
2023/08/07 02:27:37;;;;;;;3.88;1.45;;;;;;;;;;4938997;28;92930;-81
2023/08/07 02:30:05;;;;;;;9.02;1.75;;;;;;;;;;4941005;28;93718;-80
2023/08/07 02:32:31;;;;;;;5.53;1.60;;;;;;;;;;4937559;28;92669;-81
2023/08/07 02:34:58;;;;;;;8.70;1.65;;;;;;;;;;4931379;28;93371;-81
2023/08/07 02:37:25;;;;;;;7.97;1.50;;;;;;;;;;4932160;28;95170;-81
2023/08/07 02:39:53;;;;;;;6.97;1.30;;;;;;;;;;4949889;28;92616;-82
2023/08/07 02:42:19;;;;;;;6.90;1.40;;;;;;;;;;4943532;28;93619;-81
2023/08/07 02:44:46;;;;;;;7.80;1.92;;;;;;;;;;4935336;28;95788;-81
2023/08/07 02:47:12;;;;;;;5.55;1.80;;;;;;;;;;4952718;28;94651;-81
2023/08/07 02:49:39;;;;;;;5.68;1.80;;;;;;;;;;4955437;28;94777;-81
2023/08/07 02:52:06;;;;;;;6.63;1.55;;;;;;;;;;4943971;28;92508;-81
2023/08/07 02:54:32;;;;;;;4.72;1.52;;;;;;;;;;4955327;28;92945;-81
2023/08/07 02:56:59;;;;;;;7.20;1.65;;;;;;;;;;4954070;28;93018;-80
2023/08/07 02:59:25;;;;;;;11.35;1.85;;;;;;;;;;4955957;28;92896;-81
2023/08/07 03:01:52;;;;;;;7.55;1.73;;;;;;;;;;4968956;28;93034;-81
2023/08/07 03:04:18;;;;;;;7.00;1.70;;;;;;;;;;4971073;28;92414;-81
2023/08/07 03:06:45;;;;;;;6.47;1.70;;;;;;;;;;4954536;28;92808;-80
2023/08/07 03:09:11;;;;;;;5.60;1.42;;;;;;;;;;4973349;28;94297;-80
2023/08/07 03:11:38;;;;;;;5.63;1.60;;;;;;;;;;4975029;28;91988;-81
2023/08/07 03:14:04;;;;;;;7.40;1.80;;;;;;;;;;4970037;28;94704;-81
2023/08/07 03:16:31;;;;;;;6.40;1.70;;;;;;;;;;4971316;28;92562;-81
2023/08/07 03:18:57;;;;;;;8.27;1.70;;;;;;;;;;4964275;28;92855;-81
2023/08/07 03:21:24;;;;;;;5.65;1.50;;;;;;;;;;4942355;28;93938;-80
2023/08/07 03:23:51;;;;;;;6.80;1.77;;;;;;;;;;4940744;28;93446;-80
2023/08/07 03:26:17;;;;;;;7.32;1.60;;;;;;;;;;4943483;28;92436;-81
2023/08/07 03:28:48;;;;;;;10.15;2.00;;;;;;;;;;4942874;28;93110;-80
2023/08/07 03:31:15;;;;;;;6.90;1.52;;;;;;;;;;4955303;28;95713;-80
2023/08/07 03:33:42;;;;;;;4.82;1.50;;;;;;;;;;4931483;28;94816;-80
2023/08/07 03:36:09;;;;;;;5.10;1.50;;;;;;;;;;4939853;28;95810;-80
2023/08/07 03:38:36;;;;;;;6.43;1.42;;;;;;;;;;4953699;28;92566;-80
2023/08/07 03:41:04;;;;;;;6.80;1.67;;;;;;;;;;4956472;28;95224;-81
2023/08/07 03:43:31;;;;;;;7.72;2.00;;;;;;;;;;4948756;28;95162;-81
2023/08/07 03:45:58;;;;;;;10.05;1.80;;;;;;;;;;4950946;28;92524;-80
2023/08/07 03:48:29;;;;;;;7.57;1.70;;;;;;;;;;4942758;28;92689;-80
2023/08/07 03:51:08;;;;;;;7.28;1.50;;;;;;;;;;4921851;28;94236;-80
2023/08/07 03:53:39;;;;;;;5.32;1.50;;;;;;;;;;4950358;28;92504;-81
2023/08/07 03:56:06;;;;;;;7.18;1.75;;;;;;;;;;4949612;28;96139;-80
2023/08/07 03:58:34;;;;;;;5.38;1.83;;;;;;;;;;4946939;28;94851;-81
2023/08/07 04:01:01;;;;;;;6.95;1.67;;;;;;;;;;4934387;28;97763;-81
2023/08/07 04:03:27;;;;;;;5.63;1.33;;;;;;;;;;4943864;28;94381;-81
2023/08/07 04:05:54;;;;;;;5.55;1.33;;;;;;;;;;4951873;28;92488;-81
2023/08/07 04:08:22;;;;;;;6.20;1.70;;;;;;;;;;4949933;28;95522;-80
2023/08/07 04:11:01;;;;;;;6.68;1.50;;;;;;;;;;4949714;28;93624;-80
2023/08/07 04:13:28;;;;;;;4.38;1.50;;;;;;;;;;4950170;28;92479;-80
2023/08/07 04:15:54;;;;;;;4.97;1.33;;;;;;;;;;4947977;28;95439;-80
2023/08/07 04:18:22;;;;;;;4.88;1.55;;;;;;;;;;4951242;28;92383;-80
2023/08/07 04:20:52;;;;;;;6.50;1.70;;;;;;;;;;4940346;28;92717;-81
2023/08/07 04:23:19;;;;;;;6.45;1.70;;;;;;;;;;4924609;28;96615;-81
2023/08/07 04:25:49;;;;;;;6.03;1.50;;;;;;;;;;4942289;28;92783;-81
2023/08/07 04:28:16;;;;;;;5.15;1.33;;;;;;;;;;4951424;28;92864;-81
2023/08/07 04:30:43;;;;;;;6.55;1.48;;;;;;;;;;4947231;28;95881;-81
2023/08/07 04:33:09;;;;;;;8.70;1.67;;;;;;;;;;4936029;28;92377;-81
2023/08/07 04:35:36;;;;;;;7.90;1.73;;;;;;;;;;4932682;28;94086;-82
2023/08/07 04:38:02;;;;;;;8.30;1.70;;;;;;;;;;4943152;28;93654;-83
2023/08/07 04:40:29;;;;;;;5.28;1.52;;;;;;;;;;4952176;28;92916;-82
2023/08/07 04:42:56;;;;;;;5.32;1.67;;;;;;;;;;4947871;28;93247;-82
2023/08/07 04:45:22;;;;;;;8.38;1.63;;;;;;;;;;4942193;28;94248;-82
2023/08/07 04:47:49;;;;;;;5.90;1.60;;;;;;;;;;4948637;28;94801;-82
2023/08/07 04:50:16;;;;;;;6.32;1.60;;;;;;;;;;4947149;28;93722;-82
2023/08/07 04:52:42;;;;;;;5.85;1.75;;;;;;;;;;4943733;28;92489;-81
2023/08/07 04:55:09;;;;;;;7.57;1.52;;;;;;;;;;4937024;28;94011;-80
2023/08/07 04:57:35;;;;;;;6.82;1.75;;;;;;;;;;4944876;28;93114;-81
2023/08/07 05:00:02;;;;;;;5.97;1.48;;;;;;;;;;4946839;28;92636;-80
2023/08/07 05:02:28;;;;;;;6.78;1.45;;;;;;;;;;4948134;28;93106;-81
2023/08/07 05:04:55;;;;;;;6.97;1.60;;;;;;;;;;4942173;28;91725;-80
2023/08/07 05:07:21;;;;;;;7.63;1.80;;;;;;;;;;4949475;28;92436;-80
2023/08/07 05:09:49;;;;;;;6.38;1.70;;;;;;;;;;4946129;28;95157;-80
2023/08/07 05:12:16;;;;;;;8.77;2.05;;;;;;;;;;4937787;28;94900;-80
2023/08/07 05:14:42;;;;;;;7.00;1.60;;;;;;;;;;4949865;28;96267;-80
2023/08/07 05:17:09;;;;;;;6.63;1.80;;;;;;;;;;4946991;28;93246;-79
2023/08/07 05:19:35;;;;;;;6.05;1.70;;;;;;;;;;4949834;28;92421;-79
2023/08/07 05:22:02;;;;;;;6.90;1.60;;;;;;;;;;4941488;28;93679;-79
2023/08/07 05:24:34;;;;;;;6.70;1.50;;;;;;;;;;4949829;28;92668;-79
2023/08/07 05:27:00;;;;;;;8.18;1.70;;;;;;;;;;4945785;28;93930;-81
2023/08/07 05:29:27;;;;;;;6.43;1.90;;;;;;;;;;4948009;28;93519;-81
2023/08/07 05:31:53;;;;;;;6.47;1.60;;;;;;;;;;4936492;28;92453;-81
2023/08/07 05:34:20;;;;;;;4.78;1.70;;;;;;;;;;4932143;28;92790;-80
2023/08/07 05:36:47;;;;;;;6.15;1.52;;;;;;;;;;4935242;28;95587;-79
2023/08/07 05:39:14;;;;;;;5.97;1.52;;;;;;;;;;4949795;28;93420;-80
2023/08/07 05:41:40;;;;;;;4.35;1.45;;;;;;;;;;4952299;28;92818;-79
2023/08/07 05:44:06;;;;;;;6.43;1.95;;;;;;;;;;4945365;28;92721;-79
2023/08/07 05:46:33;;;;;;;5.18;1.40;;;;;;;;;;4949186;28;93613;-79
2023/08/07 05:48:59;;;;;;;5.65;1.60;;;;;;;;;;4949205;28;92285;-79
2023/08/07 05:51:26;;;;;;;6.07;1.65;;;;;;;;;;4939178;28;94226;-80
2023/08/07 05:53:53;;;;;;;5.88;1.60;;;;;;;;;;4949137;28;92826;-79
2023/08/07 05:56:20;;;;;;;6.22;1.65;;;;;;;;;;4949219;28;94168;-80
2023/08/07 05:58:46;;;;;;;;;;;;;;;;;;4950890;28;92509;-80
2023/08/07 06:01:14;;;;;;;6.13;1.55;;;;;;;;;;4947974;28;112894;-80
2023/08/07 06:03:41;;;;;;;7.82;1.80;;;;;;;;;;4948103;28;93141;-80
2023/08/07 06:06:08;;;;;;;7.05;1.77;;;;;;;;;;4948923;28;92655;-81
2023/08/07 06:08:34;;;;;;;5.40;1.60;;;;;;;;;;4939305;28;94140;-81
2023/08/07 06:11:03;;;;;;;5.50;1.70;;;;;;;;;;4922850;28;92594;-81
2023/08/07 06:13:29;;;;;;;5.82;1.65;;;;;;;;;;4949723;28;93257;-80
2023/08/07 06:16:02;;;;;;;8.65;1.92;;;;;;;;;;4951978;28;93896;-84
2023/08/07 06:18:29;;;;;;;6.13;1.75;;;;;;;;;;4945192;28;91804;-82
2023/08/07 06:20:56;;;;;;;;;;;;;;;;;;4939726;28;92315;-83
2023/08/07 06:23:23;;;;;;;5.32;1.40;;;;;;;;;;4944296;28;94379;-83
2023/08/07 06:25:49;;;;;;;5.43;1.85;;;;;;;;;;4954689;28;94923;-83
2023/08/07 06:28:22;;;;;;;6.20;1.40;;;;;;;;;;4943684;28;92811;-82
2023/08/07 06:30:49;;;;;;;6.25;1.92;;;;;;;;;;4952732;28;93022;-84
2023/08/07 06:33:15;;;;;;;5.80;1.45;;;;;;;;;;4937717;28;92832;-83
2023/08/07 06:35:45;;;;;;;7.40;1.73;;;;;;;;;;4931202;28;93876;-84
2023/08/07 06:38:11;;;;;;;7.43;1.90;;;;;;;;;;4933981;28;93416;-84
2023/08/07 06:40:38;;;;;;;7.45;1.73;;;;;;;;;;4944469;28;93832;-84
2023/08/07 06:43:04;;;;;;;7.63;1.70;;;;;;;;;;4937711;28;92599;-86
2023/08/07 06:45:31;;;;;;;7.78;1.80;;;;;;;;;;4944360;28;92980;-84
2023/08/07 06:47:57;;;;;;;6.43;1.67;;;;;;;;;;4946101;28;92931;-84
2023/08/07 06:50:24;;;;;;;8.07;1.90;;;;;;;;;;4943879;28;94750;-84
2023/08/07 06:52:51;;;;;;;8.20;1.65;;;;;;;;;;4936956;28;95494;-84
2023/08/07 06:55:18;;;;;;;5.95;1.67;;;;;;;;;;4947032;28;95071;-85
2023/08/07 06:57:45;;;;;;;7.18;1.75;;;;;;;;;;4951547;28;92762;-85
2023/08/07 07:00:11;;;;;;;8.75;2.35;;;;;;;;;;4948982;28;93027;-85
2023/08/07 07:02:38;;;;;;;5.78;1.70;;;;;;;;;;4948641;28;92546;-85
2023/08/07 07:05:05;;;;;;;5.82;1.60;;;;;;;;;;4942031;28;92519;-85
2023/08/07 07:07:31;;;;;;;6.70;1.80;;;;;;;;;;4948602;28;94390;-84
2023/08/07 07:10:00;;;;;;;6.38;1.98;;;;;;;;;;4945011;28;93205;-85
2023/08/07 07:12:27;;;;;;;5.78;1.60;;;;;;;;;;4939733;28;92616;-85
2023/08/07 07:14:53;;;;;;;7.75;2.10;;;;;;;;;;4950333;28;95543;-84
2023/08/07 07:17:20;;;;;;;6.20;1.60;;;;;;;;;;4949617;28;92754;-85
2023/08/07 07:19:47;;;;;;;7.78;1.90;;;;;;;;;;4942323;28;92989;-84
2023/08/07 07:22:13;;;;;;;9.07;1.90;;;;;;;;;;4932936;28;94550;-84
2023/08/07 07:24:40;;;;;;;7.13;1.92;;;;;;;;;;4946555;28;92812;-84
2023/08/07 07:27:06;;;;;;;7.10;1.70;;;;;;;;;;4953072;28;93159;-84
2023/08/07 07:29:33;;;;;;;7.93;1.90;;;;;;;;;;4960368;28;92478;-84
2023/08/07 07:31:59;;;;;;;6.13;1.73;;;;;;;;;;4940826;28;92893;-84
2023/08/07 07:34:26;;;;;;;5.97;1.63;;;;;;;;;;4942470;28;93257;-83
2023/08/07 07:36:54;;;;;;;5.07;1.67;;;;;;;;;;4935960;28;92821;-86
2023/08/07 07:39:20;;;;;;;8.18;1.90;;;;;;;;;;4923739;28;95282;-85
2023/08/07 07:41:47;;;;;;;5.85;1.70;;;;;;;;;;4949460;28;93213;-85
2023/08/07 07:44:14;;;;;;;7.63;1.80;;;;;;;;;;4939932;28;92516;-85
2023/08/07 07:46:40;;;;;;;9.32;2.13;;;;;;;;;;4936321;28;92840;-85
2023/08/07 07:49:07;;;;;;;9.63;2.03;;;;;;;;;;4942178;28;93156;-85
2023/08/07 07:51:35;;;;;;;10.30;2.13;;;;;;;;;;4964281;28;92434;-86
2023/08/07 07:54:01;;;;;;;7.85;2.03;;;;;;;;;;4950591;28;93152;-85
2023/08/07 07:56:41;;;;;;;8.43;2.20;;;;;;;;;;4951170;28;92056;-85
2023/08/07 07:59:07;;;;;;;8.57;2.25;;;;;;;;;;4942237;28;94839;-85
2023/08/07 08:01:35;;;;;;;;;;;;;;;;;;4942282;28;94023;-84
2023/08/07 08:04:02;;;;;;;8.27;1.90;;;;;;;;;;4946603;28;94855;-84
2023/08/07 08:06:30;;;;;;;9.27;2.25;;;;;;;;;;4943858;28;95206;-84
2023/08/07 08:08:57;;;;;;;6.70;2.10;;;;;;;;;;4948423;28;93534;-84
2023/08/07 08:11:24;;;;;;;9.20;2.38;;;;;;;;;;4967513;28;92606;-84
2023/08/07 08:13:50;;;;;;;9.13;2.22;;;;;;;;;;4940397;28;93114;-83
2023/08/07 08:16:17;;;;;;;7.57;1.95;;;;;;;;;;4936589;28;92734;-84
2023/08/07 08:18:44;;;;;;;8.55;2.20;;;;;;;;;;4939308;28;92892;-82
2023/08/07 08:21:11;;;;;;;8.77;2.15;;;;;;;;;;4928063;28;94072;-82
2023/08/07 08:23:37;;;;;;;6.13;2.08;;;;;;;;;;4950090;28;92404;-84
2023/08/07 08:26:04;;;;;;;8.43;2.00;;;;;;;;;;4945881;28;92897;-84
2023/08/07 08:28:30;;;;;;;6.65;2.08;;;;;;;;;;4922002;28;97082;-84
2023/08/07 08:30:57;;;;;;;6.85;1.95;;;;;;;;;;4950244;28;92396;-84
2023/08/07 08:33:23;;;;;;;10.27;2.20;;;;;;;;;;4943034;28;92863;-86
2023/08/07 08:35:50;;;;;;;8.07;2.30;;;;;;;;;;4935953;28;93394;-85
2023/08/07 08:38:17;;;;;;;9.95;2.20;;;;;;;;;;4947574;28;95566;-85
2023/08/07 08:40:46;;;;;;;7.28;1.80;;;;;;;;;;4941902;28;94154;-85
2023/08/07 08:43:13;;;;;;;8.30;1.90;;;;;;;;;;4934790;28;92546;-85
2023/08/07 08:45:40;;;;;;;6.22;2.00;;;;;;;;;;4930157;28;95993;-85
2023/08/07 08:48:07;;;;;;;8.10;2.10;;;;;;;;;;4940446;28;93031;-85
2023/08/07 08:50:35;;;;;;;7.57;2.05;;;;;;;;;;4941710;28;92487;-85
2023/08/07 08:53:02;;;;;;;6.03;1.90;;;;;;;;;;4947883;28;95262;-84
2023/08/07 08:55:30;;;;;;;8.32;2.28;;;;;;;;;;4939977;28;94462;-84
2023/08/07 08:58:00;;;;;;;7.65;1.95;;;;;;;;;;4938675;28;92577;-86
2023/08/07 09:00:29;;;;;;;8.20;2.20;;;;;;;;;;4944068;28;93653;-85
2023/08/07 09:02:56;;;;;;;8.60;2.20;;;;;;;;;;4938630;28;94452;-86
2023/08/07 09:05:22;;;;;;;8.93;2.35;;;;;;;;;;4937409;28;93050;-87
2023/08/07 09:07:49;;;;;;;9.43;2.65;;;;;;;;;;4948106;28;93506;-85
2023/08/07 09:10:16;;;;;;;10.90;2.30;;;;;;;;;;4943270;28;92145;-86
2023/08/07 09:12:53;;;;;;;7.25;2.00;;;;;;;;;;4936378;28;92777;-84
2023/08/07 09:15:19;;;;;;;8.98;2.22;;;;;;;;;;4947796;28;94988;-85
2023/08/07 09:17:46;;;;;;;9.00;2.10;;;;;;;;;;4940604;28;95097;-85
2023/08/07 09:20:14;;;;;;;8.40;2.10;;;;;;;;;;4956420;28;95373;-86
2023/08/07 09:22:42;;;;;;;7.28;2.00;;;;;;;;;;4939654;28;92494;-88
2023/08/07 09:25:09;;;;;;;9.50;2.15;;;;;;;;;;4944034;28;93519;-85
2023/08/07 09:27:39;;;;;;;7.22;1.92;;;;;;;;;;4950194;28;93162;-84
2023/08/07 09:30:09;;;;;;;7.10;1.70;;;;;;;;;;4955598;28;92445;-84
2023/08/07 09:32:36;;;;;;;9.02;2.10;;;;;;;;;;4945035;28;92831;-84
2023/08/07 09:35:04;;;;;;;8.20;2.00;;;;;;;;;;4934813;28;92960;-84
2023/08/07 09:37:31;;;;;;;8.70;2.35;;;;;;;;;;4940498;28;93066;-84
2023/08/07 09:40:01;;;;;;;8.05;2.10;;;;;;;;;;4948276;28;94052;-82
2023/08/07 09:42:30;;;;;;;7.05;2.00;;;;;;;;;;4935931;28;95198;-85
2023/08/07 09:44:57;;;;;;;5.75;1.88;;;;;;;;;;4950979;28;95120;-84
2023/08/07 09:47:24;;;;;;;6.75;1.80;;;;;;;;;;4943976;28;93004;-85
2023/08/07 09:49:53;;;;;;;8.88;2.30;;;;;;;;;;4924337;28;92876;-84
2023/08/07 09:52:20;;;;;;;6.85;2.00;;;;;;;;;;4939337;28;93371;-85
2023/08/07 09:54:46;;;;;;;8.43;1.90;;;;;;;;;;4942743;28;93595;-84
2023/08/07 09:57:13;;;;;;;9.90;2.47;;;;;;;;;;4940895;28;92925;-84
2023/08/07 09:59:40;;;;;;;8.52;2.28;;;;;;;;;;4954955;28;94512;-84
2023/08/07 10:02:08;;;;;;;6.63;2.03;;;;;;;;;;4956916;28;94848;-85
2023/08/07 10:04:35;;;;;;;7.20;2.03;;;;;;;;;;4958909;28;92558;-85
2023/08/07 10:07:02;;;;;;;7.93;1.80;;;;;;;;;;4944560;28;95507;-84
2023/08/07 10:09:28;;;;;;;7.03;1.90;;;;;;;;;;4951237;28;92823;-85
2023/08/07 10:11:55;;;;;;;8.48;2.08;;;;;;;;;;4941482;28;92770;-85
2023/08/07 10:14:22;;;;;;;6.63;2.08;;;;;;;;;;4936553;28;96058;-84
2023/08/07 10:16:49;;;;;;;9.20;2.00;;;;;;;;;;4950916;28;92416;-85
2023/08/07 10:19:15;;;;;;;9.55;2.10;;;;;;;;;;4947895;28;93894;-85
2023/08/07 10:21:42;;;;;;;7.45;2.20;;;;;;;;;;4947622;28;93189;-85
2023/08/07 10:24:10;;;;;;;6.68;2.08;;;;;;;;;;4959513;28;91892;-84
2023/08/07 10:26:42;;;;;;;7.53;2.15;;;;;;;;;;4977720;28;92636;-84
2023/08/07 10:29:11;;;;;;;7.93;2.08;;;;;;;;;;4942242;28;92382;-85
2023/08/07 10:31:38;;;;;;;6.95;2.00;;;;;;;;;;4953334;28;95493;-84
2023/08/07 10:34:05;;;;;;;6.53;2.10;;;;;;;;;;4953612;28;93979;-81
2023/08/07 10:36:32;;;;;;;8.05;2.00;;;;;;;;;;4941896;28;92748;-82
2023/08/07 10:38:58;;;;;;;;;;;;;;;;;;4959106;28;92931;-82
2023/08/07 10:41:25;;;;;;;5.20;1.65;;;;;;;;;;4964574;28;94149;-83
2023/08/07 10:43:53;;;;;;;7.55;1.92;;;;;;;;;;4955747;28;92482;-83
2023/08/07 10:46:23;;;;;;;6.38;1.67;;;;;;;;;;4971838;28;94826;-85
2023/08/07 10:48:56;;;;;;;7.85;2.20;;;;;;;;;;4960765;28;91380;-84
2023/08/07 10:51:28;;;;;;;6.15;2.15;;;;;;;;;;4967561;28;93373;-84
2023/08/07 10:53:56;;;;;;;7.70;2.30;;;;;;;;;;4959032;28;93315;-83
2023/08/07 10:56:33;;;;;;;6.82;2.38;;;;;;;;;;4958566;28;95596;-84
2023/08/07 10:59:07;;;;;;;6.72;2.05;;;;;;;;;;4972886;28;93990;-84
2023/08/07 11:01:39;;;;;;;8.15;2.10;;;;;;;;;;4969212;28;92389;-84
2023/08/07 11:04:07;;;;;;;6.45;1.85;;;;;;;;;;4957194;28;92407;-83
2023/08/07 11:06:38;;;;;;;8.07;2.00;;;;;;;;;;4935626;28;94565;-84
2023/08/07 11:09:05;;;;;;;6.45;2.10;;;;;;;;;;4944480;28;94769;-84
2023/08/07 11:11:44;;;;;;;6.07;2.28;;;;;;;;;;4949770;28;93052;-84
2023/08/07 11:14:15;;;;;;;6.47;2.00;;;;;;;;;;4941847;28;92363;-85
2023/08/07 11:16:43;;;;;;;5.88;1.70;;;;;;;;;;4936989;28;92949;-86
2023/08/07 11:19:11;;;;;;;9.00;2.13;;;;;;;;;;4933434;28;92854;-86
2023/08/07 11:21:37;;;;;;;9.38;2.22;;;;;;;;;;4929102;28;98569;-86
2023/08/07 11:24:04;;;;;;;7.80;2.17;;;;;;;;;;4946508;28;92558;-85
2023/08/07 11:26:31;;;;;;;7.45;1.90;;;;;;;;;;4931708;28;94403;-85
2023/08/07 11:28:57;;;;;;;7.05;2.00;;;;;;;;;;4947842;28;95976;-84
2023/08/07 11:31:25;;;;;;;5.65;2.00;;;;;;;;;;4944709;28;92500;-85
2023/08/07 11:33:52;;;;;;;7.78;2.00;;;;;;;;;;4937959;28;93253;-85
2023/08/07 11:36:19;;;;;;;7.97;2.00;;;;;;;;;;4947299;28;92680;-85
2023/08/07 11:38:46;;;;;;;5.25;1.80;;;;;;;;;;4940609;28;92814;-84
2023/08/07 11:41:13;;;;;;;6.82;2.00;;;;;;;;;;4951673;28;93074;-86
2023/08/07 11:43:39;;;;;;;;;;;;;;;;;;4940265;28;92985;-86
2023/08/07 11:46:07;;;;;;;7.63;2.25;;;;;;;;;;4937580;28;95461;-87
2023/08/07 11:48:36;;;;;;;5.95;1.80;;;;;;;;;;4949853;28;96490;-89
2023/08/07 11:51:03;;;;;;;5.45;1.67;;;;;;;;;;4953688;28;92386;-88
2023/08/07 11:53:30;;;;;;;9.18;2.30;;;;;;;;;;4933677;28;93039;-88
2023/08/07 11:55:58;;;;;;;8.02;1.90;;;;;;;;;;4939661;28;92441;-87
2023/08/07 11:58:25;;;;;;;7.72;2.10;;;;;;;;;;4938004;28;93056;-88
2023/08/07 12:00:54;;;;;;;8.45;1.92;;;;;;;;;;4943079;28;95461;-89
2023/08/07 12:03:28;;;;;;;6.25;1.92;;;;;;;;;;4934036;28;92489;-89
2023/08/07 12:05:56;;;;;;;6.60;1.98;;;;;;;;;;4938393;28;92457;-89
2023/08/07 12:08:23;;;;;;;7.22;2.28;;;;;;;;;;4949504;28;94666;-86
2023/08/07 12:10:50;;;;;;;5.85;1.98;;;;;;;;;;4941554;28;94868;-87
2023/08/07 12:13:19;;;;;;;9.43;2.17;;;;;;;;;;4949798;28;95327;-86
2023/08/07 12:15:46;;;;;;;6.97;1.98;;;;;;;;;;4949834;28;92462;-85
2023/08/07 12:18:14;;;;;;;7.65;2.03;;;;;;;;;;4947833;28;92966;-87
2023/08/07 12:20:45;;;;;;;7.15;2.13;;;;;;;;;;4936425;28;92979;-87
2023/08/07 12:23:18;;;;;;;6.47;1.80;;;;;;;;;;4941157;28;93173;-85
2023/08/07 12:25:45;;;;;;;8.23;1.83;;;;;;;;;;4947924;28;93581;-85
2023/08/07 12:28:11;;;;;;;7.68;1.90;;;;;;;;;;4944142;28;91765;-84
2023/08/07 12:30:38;;;;;;;7.20;1.80;;;;;;;;;;4954547;28;93196;-83
2023/08/07 12:33:05;;;;;;;7.55;1.85;;;;;;;;;;4958827;28;92623;-85
2023/08/07 12:35:32;;;;;;;5.63;1.67;;;;;;;;;;4943584;28;95985;-85
2023/08/07 12:37:58;;;;;;;6.38;1.80;;;;;;;;;;4938543;28;95259;-85
2023/08/07 12:40:25;;;;;;;8.10;1.90;;;;;;;;;;4933237;28;93052;-85
2023/08/07 12:42:55;;;;;;;6.85;1.92;;;;;;;;;;4946911;28;92547;-85
2023/08/07 12:45:21;;;;;;;6.90;1.90;;;;;;;;;;4951707;28;92783;-86
2023/08/07 12:48:08;;;;;;;7.90;2.00;;;;;;;;;;4932986;28;93968;-85
2023/08/07 12:50:35;;;;;;;10.10;1.70;;;;;;;;;;4946451;28;92897;-86
2023/08/07 12:53:02;;;;;;;6.20;1.50;;;;;;;;;;4943945;28;93521;-85
2023/08/07 12:55:29;;;;;;;6.80;1.55;;;;;;;;;;4946638;28;93180;-86
2023/08/07 12:57:56;;;;;;;6.38;1.90;;;;;;;;;;4944165;28;93028;-85
2023/08/07 13:00:23;;;;;;;;;;;;;;;;;;4946658;28;95505;-85
2023/08/07 13:02:50;;;;;;;6.03;1.55;;;;;;;;;;4945699;28;92731;-85
2023/08/07 13:05:18;;;;;;;6.55;1.77;;;;;;;;;;4950238;28;92794;-86
2023/08/07 13:07:45;;;;;;;7.05;1.67;;;;;;;;;;4950099;28;93216;-84
2023/08/07 13:10:14;;;;;;;6.63;1.70;;;;;;;;;;4940260;28;94448;-85
2023/08/07 13:12:42;;;;;;;6.32;1.70;;;;;;;;;;4943260;28;93734;-86
2023/08/07 13:15:12;;;;;;;7.30;1.60;;;;;;;;;;4943225;28;94207;-86
2023/08/07 13:17:39;;;;;;;4.22;1.40;;;;;;;;;;4941416;28;91897;-87
2023/08/07 13:20:09;;;;;;;6.72;1.63;;;;;;;;;;4955314;28;93156;-85
2023/08/07 13:22:40;;;;;;;7.25;1.50;;;;;;;;;;4957957;28;92561;-85
2023/08/07 13:25:07;;;;;;;7.65;1.60;;;;;;;;;;4949405;28;94940;-84
2023/08/07 13:27:34;;;;;;;6.13;1.60;;;;;;;;;;4960608;28;93904;-84
2023/08/07 13:30:00;;;;;;;6.53;1.70;;;;;;;;;;4951470;28;92441;-84
2023/08/07 13:32:27;;;;;;;5.32;1.60;;;;;;;;;;4932723;28;92798;-84
2023/08/07 13:34:54;;;;;;;7.28;1.60;;;;;;;;;;4932561;28;93100;-83
2023/08/07 13:37:21;;;;;;;5.85;1.80;;;;;;;;;;4924269;28;92796;-84
2023/08/07 13:39:52;;;;;;;6.00;1.60;;;;;;;;;;4946638;28;93172;-84
2023/08/07 13:42:19;;;;;;;4.60;1.48;;;;;;;;;;4949804;28;91696;-84
2023/08/07 13:44:45;;;;;;;4.30;1.25;;;;;;;;;;4936138;28;93184;-84
2023/08/07 13:47:12;;;;;;;4.57;1.50;;;;;;;;;;4932447;28;93656;-83
2023/08/07 13:49:39;;;;;;;7.47;1.95;;;;;;;;;;4931416;28;94855;-83
2023/08/07 13:52:06;;;;;;;3.88;1.40;;;;;;;;;;4932531;28;96361;-83
2023/08/07 13:54:32;;;;;;;4.88;1.70;;;;;;;;;;4939841;28;93092;-79
2023/08/07 13:56:59;;;;;;;3.40;1.40;;;;;;;;;;4944456;28;92564;-79
2023/08/07 13:59:26;;;;;;;4.25;1.48;;;;;;;;;;4942225;28;92793;-79
2023/08/07 14:01:54;;;;;;;4.20;1.58;;;;;;;;;;4939393;28;94018;-79
2023/08/07 14:04:22;;;;;;;3.85;1.65;;;;;;;;;;4942698;28;92762;-79
2023/08/07 14:06:48;;;;;;;5.90;1.40;;;;;;;;;;4938242;28;92215;-80
2023/08/07 14:09:15;;;;;;;5.18;1.60;;;;;;;;;;4933827;28;92728;-79
2023/08/07 14:11:41;;;;;;;5.00;1.40;;;;;;;;;;4932612;28;93474;-78
2023/08/07 14:14:08;;;;;;;3.83;1.25;;;;;;;;;;4943888;28;95535;-78
2023/08/07 14:16:34;;;;;;;4.47;1.40;;;;;;;;;;4945579;28;92619;-79
2023/08/07 14:19:03;;;;;;;4.43;1.58;;;;;;;;;;4948904;28;92979;-79
2023/08/07 14:21:30;;;;;;;2.67;1.20;;;;;;;;;;4938365;28;95969;-79
2023/08/07 14:23:56;;;;;;;4.65;1.50;;;;;;;;;;4952705;28;92410;-79
2023/08/07 14:26:23;;;;;;;6.18;1.75;;;;;;;;;;4947516;28;93186;-79
2023/08/07 14:28:50;;;;;;;5.90;1.50;;;;;;;;;;4948189;28;92761;-78
2023/08/07 14:31:16;;;;;;;4.28;1.50;;;;;;;;;;4936403;28;92688;-78
2023/08/07 14:33:43;;;;;;;4.90;1.45;;;;;;;;;;4926160;28;93602;-79
2023/08/07 14:36:09;;;;;;;3.60;1.50;;;;;;;;;;4934955;28;92448;-78
2023/08/07 14:38:36;;;;;;;4.30;1.58;;;;;;;;;;4949766;28;95223;-78
2023/08/07 14:41:04;;;;;;;4.43;1.45;;;;;;;;;;4940233;28;95001;-79
2023/08/07 14:43:31;;;;;;;4.25;1.40;;;;;;;;;;4944652;28;92537;-78
2023/08/07 14:46:00;;;;;;;4.95;1.55;;;;;;;;;;4939335;28;93330;-78
2023/08/07 14:48:26;;;;;;;5.55;1.58;;;;;;;;;;4945326;28;93117;-78
2023/08/07 14:50:53;;;;;;;4.75;1.58;;;;;;;;;;4950862;28;92790;-78
2023/08/07 14:53:19;;;;;;;3.92;1.73;;;;;;;;;;4952214;28;93490;-78
2023/08/07 14:55:46;;;;;;;5.25;1.60;;;;;;;;;;4944563;28;91968;-78
2023/08/07 14:58:13;;;;;;;4.72;1.45;;;;;;;;;;4945169;28;92889;-78
2023/08/07 15:00:39;;;;;;;3.90;1.55;;;;;;;;;;4948373;28;93284;-78
2023/08/07 15:03:06;;;;;;;5.75;1.55;;;;;;;;;;4942421;28;94821;-80